createdAt,value
2023-02-14T00:00:29.629Z,29.13
2023-02-14T00:02:57.162Z,23.75
2023-02-14T00:05:23.845Z,27.42
2023-02-14T00:07:50.537Z,29.15
2023-02-14T00:10:17.837Z,30.73
2023-02-14T00:12:44.479Z,28.67
2023-02-14T00:15:23.661Z,30.88
2023-02-14T00:17:54.937Z,30.45
2023-02-14T00:20:22.665Z,31.00
2023-02-14T00:22:49.692Z,30.27
2023-02-14T00:25:16.601Z,28.77
2023-02-14T00:27:43.181Z,29.88
2023-02-14T00:30:12.661Z,29.25
2023-02-14T00:32:40.455Z,30.65
2023-02-14T00:35:08.909Z,32.22
2023-02-14T00:37:35.997Z,30.13
2023-02-14T00:40:02.930Z,29.95
2023-02-14T00:42:29.452Z,31.08
2023-02-14T00:44:56.231Z,28.85
2023-02-14T00:47:22.850Z,29.63
2023-02-14T00:49:49.470Z,28.13
2023-02-14T00:52:16.110Z,28.45
2023-02-14T00:54:42.696Z,32.03
2023-02-14T00:57:09.375Z,31.17
2023-02-14T00:59:35.994Z,30.13
2023-02-14T01:02:02.562Z,30.98
2023-02-14T01:04:29.200Z,30.30
2023-02-14T01:06:55.725Z,31.42
2023-02-14T01:09:22.714Z,34.15
2023-02-14T01:11:49.260Z,31.50
2023-02-14T01:14:15.791Z,31.48
2023-02-14T01:16:42.530Z,32.13
2023-02-14T01:19:09.381Z,32.55
2023-02-14T01:21:36.042Z,37.63
2023-02-14T01:24:06.314Z,33.42
2023-02-14T01:26:34.278Z,31.50
2023-02-14T01:29:01.529Z,32.45
2023-02-14T01:31:30.216Z,34.45
2023-02-14T01:33:58.168Z,30.80
2023-02-14T01:36:27.730Z,31.00
2023-02-14T01:38:59.537Z,33.28
2023-02-14T01:41:31.545Z,35.53
2023-02-14T01:44:04.655Z,34.03
2023-02-14T01:46:33.800Z,37.67
2023-02-14T01:49:14.720Z,32.90
2023-02-14T01:51:47.283Z,33.60
2023-02-14T01:54:14.046Z,39.08
2023-02-14T01:56:45.910Z,41.72
2023-02-14T01:59:18.604Z,35.33
2023-02-14T02:01:48.214Z,36.90
2023-02-14T02:04:22.188Z,34.70
2023-02-14T02:06:56.709Z,39.13
2023-02-14T02:09:23.188Z,37.15
2023-02-14T02:11:49.911Z,36.97
2023-02-14T02:14:19.605Z,40.03
2023-02-14T02:17:08.644Z,34.57
2023-02-14T02:20:21.110Z,35.42
2023-02-14T02:23:08.507Z,35.25
2023-02-14T02:25:50.136Z,33.45
2023-02-14T02:28:53.044Z,36.60
2023-02-14T02:32:13.344Z,33.80
2023-02-14T02:35:05.749Z,34.22
2023-02-14T02:37:54.051Z,29.75
2023-02-14T02:40:44.891Z,32.42
2023-02-14T02:46:11.787Z,30.63
2023-02-14T02:48:45.284Z,35.47
2023-02-14T02:51:39.675Z,35.60
2023-02-14T02:54:31.579Z,35.08
2023-02-14T02:57:01.963Z,38.45
2023-02-14T02:59:32.538Z,34.65
2023-02-14T03:02:12.862Z,37.08
2023-02-14T03:04:56.297Z,35.78
2023-02-14T03:07:34.852Z,35.33
2023-02-14T03:10:15.433Z,33.85
2023-02-14T03:13:09.144Z,37.22
2023-02-14T03:16:10.261Z,33.88
2023-02-14T03:18:44.121Z,37.35
2023-02-14T03:21:27.765Z,36.67
2023-02-14T03:24:01.313Z,41.75
2023-02-14T03:26:37.814Z,42.00
2023-02-14T03:29:18.852Z,40.70
2023-02-14T03:32:03.797Z,43.10
2023-02-14T03:35:02.810Z,44.38
2023-02-14T03:37:47.157Z,43.67
2023-02-14T03:40:16.031Z,42.03
2023-02-14T03:43:04.582Z,45.03
2023-02-14T03:45:39.571Z,39.63
2023-02-14T03:48:09.992Z,42.72
2023-02-14T03:50:41.212Z,46.28
2023-02-14T03:53:10.040Z,43.95
2023-02-14T03:55:44.500Z,38.45
2023-02-14T03:58:20.812Z,43.17
2023-02-14T04:00:50.408Z,42.80
2023-02-14T04:03:19.737Z,43.75
2023-02-14T04:05:52.470Z,42.25
2023-02-14T04:08:24.551Z,38.67
2023-02-14T04:10:52.814Z,42.17
2023-02-14T04:13:19.779Z,42.55
2023-02-14T04:15:46.344Z,41.70
2023-02-14T04:18:31.580Z,42.30
2023-02-14T04:20:58.560Z,40.45
2023-02-14T04:23:25.279Z,42.83
2023-02-14T04:25:51.990Z,39.78
2023-02-14T04:28:18.530Z,39.38
2023-02-14T04:30:45.036Z,39.65
2023-02-14T04:33:11.584Z,42.38
2023-02-14T04:35:38.129Z,38.50
2023-02-14T04:38:05.655Z,41.55
2023-02-14T04:40:32.505Z,38.35
2023-02-14T04:43:00.555Z,43.90
2023-02-14T04:45:29.617Z,38.17
2023-02-14T04:47:56.298Z,36.72
2023-02-14T04:50:23.565Z,36.10
2023-02-14T04:52:50.130Z,38.83
2023-02-14T04:55:19.888Z,38.88
2023-02-14T04:57:46.550Z,28.37
2023-02-14T05:00:13.730Z,35.20
2023-02-14T05:02:40.264Z,34.10
2023-02-14T05:05:07.291Z,38.78
2023-02-14T05:07:33.763Z,39.92
2023-02-14T05:10:00.335Z,37.47
2023-02-14T05:12:27.292Z,37.70
2023-02-14T05:14:53.878Z,36.97
2023-02-14T05:17:20.463Z,39.90
2023-02-14T05:19:47.004Z,39.42
2023-02-14T05:22:13.512Z,35.90
2023-02-14T05:24:40.064Z,39.13
2023-02-14T05:27:07.670Z,37.72
2023-02-14T05:29:34.225Z,42.25
2023-02-14T05:32:00.778Z,37.60
2023-02-14T05:34:27.766Z,38.72
2023-02-14T05:36:55.037Z,43.33
2023-02-14T05:39:21.725Z,43.42
2023-02-14T05:41:48.386Z,40.75
2023-02-14T05:44:14.911Z,42.58
2023-02-14T05:46:41.493Z,44.42
2023-02-14T05:49:07.980Z,43.38
2023-02-14T05:51:34.602Z,44.25
2023-02-14T05:54:01.511Z,45.95
2023-02-14T05:56:28.147Z,46.30
2023-02-14T05:58:54.856Z,49.95
2023-02-14T06:01:21.523Z,49.72
2023-02-14T06:03:48.023Z,49.67
2023-02-14T06:06:14.555Z,46.85
2023-02-14T06:08:41.230Z,51.25
2023-02-14T06:11:07.778Z,48.30
2023-02-14T06:13:34.304Z,47.72
2023-02-14T06:16:03.519Z,48.28
2023-02-14T06:18:30.076Z,50.17
2023-02-14T06:20:57.666Z,45.78
2023-02-14T06:23:24.493Z,47.63
2023-02-14T06:25:51.055Z,46.50
2023-02-14T06:28:17.607Z,48.45
2023-02-14T06:30:46.662Z,43.97
2023-02-14T06:33:13.330Z,45.60
2023-02-14T06:35:39.883Z,44.63
2023-02-14T06:38:06.379Z,46.13
2023-02-14T06:40:33.048Z,46.10
2023-02-14T06:42:59.774Z,45.53
2023-02-14T06:45:26.328Z,46.92
2023-02-14T06:47:52.929Z,46.22
2023-02-14T06:50:19.589Z,43.65
2023-02-14T06:52:46.125Z,42.42
2023-02-14T06:55:13.925Z,47.70
2023-02-14T06:57:40.853Z,44.97
2023-02-14T07:00:08.224Z,44.83
2023-02-14T07:02:34.801Z,44.50
2023-02-14T07:05:01.683Z,45.17
2023-02-14T07:07:28.235Z,44.55
2023-02-14T07:09:54.805Z,43.97
2023-02-14T07:12:21.353Z,44.85
2023-02-14T07:14:47.875Z,44.90
2023-02-14T07:17:14.394Z,40.22
2023-02-14T07:19:40.982Z,39.85
2023-02-14T07:22:07.590Z,39.63
2023-02-14T07:24:34.152Z,34.00
2023-02-14T07:27:00.640Z,36.00
2023-02-14T07:29:27.201Z,32.90
2023-02-14T07:31:54.426Z,36.90
2023-02-14T07:34:21.146Z,33.45
2023-02-14T07:36:47.610Z,35.65
2023-02-14T07:39:14.206Z,40.42
2023-02-14T07:41:40.744Z,37.42
2023-02-14T07:44:07.365Z,34.92
2023-02-14T07:46:33.957Z,33.17
2023-02-14T07:49:00.586Z,34.60
2023-02-14T07:51:27.164Z,33.60
2023-02-14T07:53:53.707Z,35.83
2023-02-14T07:56:20.264Z,35.03
2023-02-14T07:58:46.807Z,33.38
2023-02-14T08:01:13.423Z,31.77
2023-02-14T08:03:39.949Z,34.80
2023-02-14T08:06:06.464Z,34.38
2023-02-14T08:08:33.141Z,31.30
2023-02-14T08:11:00.074Z,32.33
2023-02-14T08:13:26.782Z,33.33
2023-02-14T08:16:06.155Z,31.23
2023-02-14T08:18:38.546Z,31.33
2023-02-14T08:21:07.128Z,33.55
2023-02-14T08:23:34.446Z,32.90
2023-02-14T08:26:01.210Z,29.98
2023-02-14T08:28:28.084Z,30.27
2023-02-14T08:30:55.322Z,31.08
2023-02-14T08:33:22.424Z,34.65
2023-02-14T08:35:50.860Z,33.30
2023-02-14T08:38:17.370Z,36.90
2023-02-14T08:40:44.492Z,32.20
2023-02-14T08:43:11.536Z,35.30
2023-02-14T08:45:38.909Z,34.88
2023-02-14T08:48:09.653Z,34.78
2023-02-14T08:53:08.961Z,32.38
2023-02-14T08:55:36.016Z,32.10
2023-02-14T08:58:03.687Z,35.53
2023-02-14T09:00:30.866Z,33.88
2023-02-14T09:02:57.712Z,33.33
2023-02-14T09:05:24.601Z,33.05
2023-02-14T09:07:51.366Z,35.75
2023-02-14T09:10:21.336Z,38.15
2023-02-14T09:12:48.401Z,39.65
2023-02-14T09:15:15.054Z,38.40
2023-02-14T09:17:41.645Z,35.85
2023-02-14T09:20:10.868Z,38.15
2023-02-14T09:22:37.676Z,38.13
2023-02-14T09:25:04.765Z,33.80
2023-02-14T09:27:32.421Z,35.88
2023-02-14T09:29:59.499Z,35.03
2023-02-14T09:32:29.361Z,38.50
2023-02-14T09:34:56.146Z,36.63
2023-02-14T09:37:42.041Z,41.58
2023-02-14T09:40:09.178Z,43.03
2023-02-14T09:42:41.651Z,41.20
2023-02-14T09:45:19.591Z,40.85
2023-02-14T09:47:56.287Z,38.10
2023-02-14T09:50:34.682Z,41.40
2023-02-14T09:53:25.898Z,37.97
2023-02-14T09:55:56.070Z,37.35
2023-02-14T09:58:39.700Z,40.17
2023-02-14T10:01:12.072Z,38.40
2023-02-14T10:03:47.668Z,39.70
2023-02-14T10:07:09.548Z,42.33
2023-02-14T10:10:13.892Z,38.20
2023-02-14T10:12:46.108Z,39.90
2023-02-14T10:15:21.957Z,41.10
2023-02-14T10:17:55.126Z,45.03
2023-02-14T10:20:41.587Z,46.38
2023-02-14T10:23:38.250Z,44.08
2023-02-14T10:26:09.644Z,42.33
2023-02-14T10:28:42.425Z,43.25
2023-02-14T10:31:23.095Z,42.95
2023-02-14T10:36:45.216Z,36.28
2023-02-14T10:40:01.058Z,36.28
2023-02-14T10:42:49.421Z,34.75
2023-02-14T10:45:39.200Z,34.53
2023-02-14T10:48:13.462Z,37.13
2023-02-14T10:51:13.854Z,34.55
2023-02-14T10:53:53.249Z,39.08
2023-02-14T10:57:09.039Z,37.72
2023-02-14T10:59:51.220Z,39.30
2023-02-14T11:02:23.339Z,39.22
2023-02-14T11:04:50.017Z,39.67
2023-02-14T11:07:18.862Z,41.08
2023-02-14T11:09:45.633Z,35.88
2023-02-14T11:12:12.521Z,41.88
2023-02-14T11:14:40.290Z,51.40
2023-02-14T11:17:30.399Z,47.47
2023-02-14T11:19:58.139Z,41.45
2023-02-14T11:22:31.763Z,41.55
2023-02-14T11:25:22.313Z,45.70
2023-02-14T11:27:52.377Z,45.60
2023-02-14T11:30:26.716Z,45.33
2023-02-14T11:32:56.141Z,46.65
2023-02-14T11:35:27.661Z,44.03
2023-02-14T11:37:56.215Z,37.90
2023-02-14T11:40:38.053Z,38.30
2023-02-14T11:43:14.434Z,41.58
2023-02-14T11:45:46.932Z,41.15
2023-02-14T11:48:19.733Z,36.33
2023-02-14T11:51:06.646Z,39.47
2023-02-14T11:53:49.326Z,40.13
2023-02-14T11:56:17.674Z,35.38
2023-02-14T11:59:00.036Z,41.28
2023-02-14T12:01:38.676Z,39.08
2023-02-14T12:04:12.242Z,38.33
2023-02-14T12:06:38.866Z,38.50
2023-02-14T12:09:23.373Z,39.20
2023-02-14T12:12:06.639Z,40.08
2023-02-14T12:14:36.500Z,38.25
2023-02-14T12:17:23.766Z,37.17
2023-02-14T12:20:09.246Z,39.75
2023-02-14T12:22:43.425Z,37.55
2023-02-14T12:25:27.257Z,37.28
2023-02-14T12:28:09.761Z,39.55
2023-02-14T12:30:36.365Z,39.72
2023-02-14T12:33:05.906Z,40.15
2023-02-14T12:35:53.617Z,43.08
2023-02-14T12:38:50.094Z,42.47
2023-02-14T12:41:27.121Z,39.70
2023-02-14T12:43:56.582Z,39.85
2023-02-14T12:46:51.469Z,39.80
2023-02-14T12:49:26.701Z,45.30
2023-02-14T12:52:10.044Z,41.38
2023-02-14T12:54:54.335Z,38.38
2023-02-14T12:57:41.194Z,38.40
2023-02-14T13:00:12.742Z,40.72
2023-02-14T13:03:14.287Z,43.92
2023-02-14T13:06:18.423Z,39.55
2023-02-14T13:09:19.019Z,39.75
2023-02-14T13:12:08.346Z,36.88
2023-02-14T13:14:56.303Z,40.55
2023-02-14T13:17:38.024Z,39.47
2023-02-14T13:20:39.825Z,45.33
2023-02-14T13:23:14.349Z,41.42
2023-02-14T13:25:50.001Z,39.78
2023-02-14T13:28:18.665Z,40.83
2023-02-14T13:30:45.326Z,38.35
2023-02-14T13:33:27.203Z,43.47
2023-02-14T13:36:07.858Z,37.17
2023-02-14T13:38:43.362Z,38.75
2023-02-14T13:41:11.222Z,41.15
2023-02-14T13:43:58.143Z,37.67
2023-02-14T13:46:34.036Z,39.13
2023-02-14T13:49:15.377Z,39.08
2023-02-14T13:51:51.229Z,41.58
2023-02-14T13:54:44.992Z,43.28
2023-02-14T13:57:36.481Z,45.45
2023-02-14T14:00:18.970Z,41.47
2023-02-14T14:02:53.230Z,44.65
2023-02-14T14:05:47.634Z,41.63
2023-02-14T14:08:36.531Z,41.47
2023-02-14T14:11:22.960Z,45.15
2023-02-14T14:13:52.268Z,45.53
2023-02-14T14:16:27.959Z,41.30
2023-02-14T14:19:00.663Z,44.47
2023-02-14T14:22:01.767Z,48.28
2023-02-14T14:24:30.976Z,47.45
2023-02-14T14:26:58.978Z,44.97
2023-02-14T14:29:52.352Z,47.65
2023-02-14T14:32:25.462Z,46.90
2023-02-14T14:35:03.965Z,47.60
2023-02-14T14:37:37.234Z,46.20
2023-02-14T14:40:06.740Z,46.92
2023-02-14T14:42:39.123Z,48.20
2023-02-14T14:45:27.630Z,46.45
2023-02-14T14:48:00.468Z,47.20
2023-02-14T14:50:30.470Z,47.75
2023-02-14T14:53:07.452Z,47.30
2023-02-14T14:55:37.398Z,43.67
2023-02-14T14:58:08.322Z,46.95
2023-02-14T15:00:38.329Z,42.45
2023-02-14T15:03:15.522Z,44.78
2023-02-14T15:05:51.092Z,46.17
2023-02-14T15:08:21.832Z,45.33
2023-02-14T15:11:05.380Z,47.83
2023-02-14T15:13:50.114Z,45.47
2023-02-14T15:16:40.799Z,48.00
2023-02-14T15:19:12.230Z,41.67
2023-02-14T15:21:44.231Z,44.85
2023-02-14T15:24:18.502Z,46.50
2023-02-14T15:26:47.847Z,48.33
2023-02-14T15:29:26.510Z,43.38
2023-02-14T15:31:54.290Z,51.03
2023-02-14T15:34:25.041Z,49.42
2023-02-14T15:39:34.592Z,47.47
2023-02-14T15:42:01.626Z,47.38
2023-02-14T15:44:28.448Z,44.85
2023-02-14T15:47:03.307Z,47.55
2023-02-14T15:49:36.778Z,47.92
2023-02-14T15:52:05.710Z,52.35
2023-02-14T15:54:47.761Z,48.70
2023-02-14T15:57:28.302Z,54.75
2023-02-14T15:59:55.307Z,53.85
2023-02-14T16:02:37.917Z,59.03
2023-02-14T16:05:26.176Z,52.65
2023-02-14T16:08:39.196Z,50.17
2023-02-14T16:11:15.888Z,54.92
2023-02-14T16:13:45.032Z,55.03
2023-02-14T16:16:14.397Z,55.40
2023-02-14T16:18:52.134Z,54.45
2023-02-14T16:21:21.455Z,54.35
2023-02-14T16:24:08.097Z,55.35
2023-02-14T16:26:38.137Z,54.72
2023-02-14T16:29:06.275Z,59.45
2023-02-14T16:31:34.174Z,55.40
2023-02-14T16:34:00.842Z,55.00
2023-02-14T16:36:34.467Z,56.80
2023-02-14T16:39:05.322Z,58.08
2023-02-14T16:41:34.404Z,56.85
2023-02-14T16:44:01.389Z,57.50
2023-02-14T16:46:35.020Z,62.78
2023-02-14T16:49:02.358Z,61.10
2023-02-14T16:51:32.578Z,60.40
2023-02-14T16:54:02.741Z,61.65
2023-02-14T16:56:37.306Z,60.10
2023-02-14T16:59:04.491Z,64.32
2023-02-14T17:01:33.244Z,61.28
2023-02-14T17:04:00.275Z,62.83
2023-02-14T17:06:28.339Z,64.30
2023-02-14T17:08:56.905Z,59.72
2023-02-14T17:11:24.989Z,61.20
2023-02-14T17:13:52.966Z,59.70
2023-02-14T17:16:19.559Z,63.05
2023-02-14T17:18:49.611Z,60.10
2023-02-14T17:21:20.052Z,61.10
2023-02-14T17:23:46.782Z,61.95
2023-02-14T17:26:14.295Z,63.67
2023-02-14T17:28:40.871Z,62.17
2023-02-14T17:31:08.153Z,66.63
2023-02-14T17:33:37.370Z,60.58
2023-02-14T17:36:11.508Z,61.75
2023-02-14T17:38:39.253Z,63.50
2023-02-14T17:41:13.368Z,61.67
2023-02-14T17:43:40.170Z,59.60
2023-02-14T17:46:06.873Z,61.80
2023-02-14T17:48:33.852Z,63.15
2023-02-14T17:51:05.333Z,65.20
2023-02-14T17:53:33.249Z,69.80
2023-02-14T17:56:18.057Z,70.50
2023-02-14T17:58:47.680Z,69.40
2023-02-14T18:01:15.809Z,64.60
2023-02-14T18:03:43.208Z,76.72
2023-02-14T18:06:11.458Z,65.93
2023-02-14T18:08:40.821Z,69.60
2023-02-14T18:11:11.440Z,66.05
2023-02-14T18:16:09.597Z,71.07
2023-02-14T18:18:36.821Z,76.45
2023-02-14T18:21:04.949Z,69.65
2023-02-14T18:23:32.950Z,71.63
2023-02-14T18:26:04.338Z,65.75
2023-02-14T18:28:32.253Z,71.40
2023-02-14T18:31:06.666Z,71.35
2023-02-14T18:33:33.980Z,74.63
2023-02-14T18:36:05.778Z,67.45
2023-02-14T18:38:32.417Z,64.57
2023-02-14T18:41:06.746Z,64.55
2023-02-14T18:43:33.797Z,65.43
2023-02-14T18:46:05.337Z,62.65
2023-02-14T18:48:32.568Z,60.15
2023-02-14T18:51:08.730Z,59.00
2023-02-14T18:53:36.502Z,48.72
2023-02-14T18:56:05.164Z,55.30
2023-02-14T18:58:31.933Z,52.45
2023-02-14T19:00:59.490Z,45.53
2023-02-14T19:03:26.173Z,52.33
2023-02-14T19:05:53.550Z,48.35
2023-02-14T19:08:20.110Z,51.60
2023-02-14T19:10:46.625Z,53.28
2023-02-14T19:13:13.113Z,47.08
2023-02-14T19:15:39.675Z,49.90
2023-02-14T19:18:06.221Z,47.75
2023-02-14T19:20:32.760Z,49.67
2023-02-14T19:22:59.377Z,48.42
2023-02-14T19:25:26.530Z,48.05
2023-02-14T19:27:53.083Z,47.90
2023-02-14T19:30:19.787Z,44.28
2023-02-14T19:32:46.434Z,46.97
2023-02-14T19:35:12.965Z,48.78
2023-02-14T19:37:39.503Z,49.92
2023-02-14T19:40:07.170Z,49.20
2023-02-14T19:42:33.756Z,47.85
2023-02-14T19:45:00.438Z,50.97
2023-02-14T19:47:39.880Z,47.45
2023-02-14T19:50:12.414Z,48.55
2023-02-14T19:52:39.610Z,52.60
2023-02-14T19:55:07.457Z,55.13
2023-02-14T19:57:34.026Z,55.58
2023-02-14T20:00:00.736Z,54.22
2023-02-14T20:02:27.307Z,56.10
2023-02-14T20:04:58.804Z,51.97
2023-02-14T20:07:25.464Z,53.45
2023-02-14T20:09:51.983Z,53.15
2023-02-14T20:12:18.526Z,56.05
2023-02-14T20:14:51.209Z,52.90
2023-02-14T20:17:18.389Z,56.60
2023-02-14T20:19:45.270Z,53.72
2023-02-14T20:22:11.813Z,49.92
2023-02-14T20:24:38.421Z,56.60
2023-02-14T20:27:05.244Z,55.10
2023-02-14T20:29:32.353Z,57.45
2023-02-14T20:32:00.101Z,53.42
2023-02-14T20:34:29.760Z,52.55
2023-02-14T20:36:56.439Z,57.17
2023-02-14T20:39:28.602Z,58.40
2023-02-14T20:41:55.330Z,57.63
2023-02-14T20:44:22.868Z,53.88
2023-02-14T20:46:51.766Z,61.50
2023-02-14T20:49:20.212Z,52.97
2023-02-14T20:51:49.650Z,55.58
2023-02-14T20:54:20.442Z,58.55
2023-02-14T20:56:47.634Z,58.55
2023-02-14T20:59:14.770Z,59.28
2023-02-14T21:01:41.446Z,63.13
2023-02-14T21:04:08.260Z,60.50
2023-02-14T21:06:35.667Z,56.83
2023-02-14T21:09:03.262Z,65.28
2023-02-14T21:11:29.956Z,69.15
2023-02-14T21:13:59.731Z,63.35
2023-02-14T21:16:28.703Z,66.63
2023-02-14T21:18:59.071Z,64.72
2023-02-14T21:21:32.247Z,67.35
2023-02-14T21:24:01.942Z,64.30
2023-02-14T21:26:28.994Z,68.40
2023-02-14T21:28:56.985Z,68.30
2023-02-14T21:31:25.840Z,65.43
2023-02-14T21:33:55.292Z,68.57
2023-02-14T21:36:23.638Z,68.72
2023-02-14T21:38:50.673Z,66.45
2023-02-14T21:41:19.927Z,67.72
2023-02-14T21:43:47.870Z,61.63
2023-02-14T21:46:17.447Z,61.72
2023-02-14T21:49:03.166Z,66.43
2023-02-14T21:51:31.151Z,69.45
2023-02-14T21:54:01.683Z,64.65
2023-02-14T21:56:28.360Z,65.85
2023-02-14T21:58:55.812Z,63.80
2023-02-14T22:01:31.595Z,64.75
2023-02-14T22:03:59.395Z,65.07
2023-02-14T22:06:27.754Z,62.15
2023-02-14T22:08:56.593Z,65.03
2023-02-14T22:11:25.414Z,65.85
2023-02-14T22:13:52.149Z,67.00
2023-02-14T22:16:20.653Z,66.63
2023-02-14T22:18:47.924Z,67.07
2023-02-14T22:21:17.834Z,58.42
2023-02-14T22:23:45.085Z,62.63
2023-02-14T22:26:17.679Z,61.97
2023-02-14T22:28:53.820Z,62.85
2023-02-14T22:31:20.939Z,59.28
2023-02-14T22:33:49.522Z,61.58
2023-02-14T22:36:16.706Z,58.00
2023-02-14T22:38:43.693Z,65.85
2023-02-14T22:41:16.049Z,63.55
2023-02-14T22:43:43.481Z,57.53
2023-02-14T22:46:17.137Z,59.42
2023-02-14T22:48:44.326Z,63.03
2023-02-14T22:51:14.538Z,60.05
2023-02-14T22:53:41.132Z,58.53
2023-02-14T22:56:22.050Z,58.80
2023-02-14T22:58:48.723Z,66.65
2023-02-14T23:01:17.833Z,59.65
2023-02-14T23:03:45.679Z,60.92
2023-02-14T23:06:13.344Z,60.53
2023-02-14T23:08:41.353Z,61.78
2023-02-14T23:11:10.291Z,62.10
2023-02-14T23:13:56.830Z,57.45
2023-02-14T23:16:43.412Z,57.50
2023-02-14T23:19:36.721Z,57.67
2023-02-14T23:22:06.740Z,56.20
2023-02-14T23:24:33.297Z,62.13
2023-02-14T23:26:59.994Z,60.15
2023-02-14T23:29:26.585Z,57.38
2023-02-14T23:31:53.202Z,56.78
2023-02-14T23:34:20.068Z,52.20
2023-02-14T23:36:46.888Z,53.35
2023-02-14T23:39:13.473Z,50.72
2023-02-14T23:41:52.067Z,50.90
2023-02-14T23:44:23.845Z,52.70
2023-02-14T23:46:52.788Z,58.25
2023-02-14T23:49:20.000Z,53.20
2023-02-14T23:51:47.976Z,58.00
2023-02-14T23:54:15.011Z,55.20
2023-02-14T23:56:42.091Z,54.00
2023-02-14T23:59:09.662Z,55.13
